sensor_id;sensor_type;location;lat;lon;timestamp;pressure;altitude;pressure_sealevel;temperature;humidity
47274;BME280;33007;49.082;19.306;2022-09-12T00:02:19;95924.31;;;12.74;100.00
47274;BME280;33007;49.082;19.306;2022-09-12T00:04:45;95912.31;;;12.66;100.00
47274;BME280;33007;49.082;19.306;2022-09-12T00:07:11;95924.06;;;12.78;100.00
47274;BME280;33007;49.082;19.306;2022-09-12T00:09:36;95917.31;;;12.68;100.00
47274;BME280;33007;49.082;19.306;2022-09-12T00:12:02;95917.31;;;12.68;100.00
47274;BME280;33007;49.082;19.306;2022-09-12T00:14:28;95930.78;;;12.82;100.00
47274;BME280;33007;49.082;19.306;2022-09-12T00:16:57;95927.22;;;12.71;100.00
47274;BME280;33007;49.082;19.306;2022-09-12T00:19:23;95905.50;;;12.50;100.00
47274;BME280;33007;49.082;19.306;2022-09-12T00:21:49;95916.66;;;12.52;100.00
47274;BME280;33007;49.082;19.306;2022-09-12T00:24:14;95916.38;;;12.50;100.00
47274;BME280;33007;49.082;19.306;2022-09-12T00:26:40;95923.91;;;12.61;100.00
47274;BME280;33007;49.082;19.306;2022-09-12T00:29:06;95927.63;;;12.58;100.00
47274;BME280;33007;49.082;19.306;2022-09-12T00:31:32;95933.81;;;12.58;100.00
47274;BME280;33007;49.082;19.306;2022-09-12T00:33:58;95922.00;;;12.41;100.00
47274;BME280;33007;49.082;19.306;2022-09-12T00:36:28;95934.59;;;12.65;100.00
47274;BME280;33007;49.082;19.306;2022-09-12T00:38:55;95888.19;;;12.27;100.00
47274;BME280;33007;49.082;19.306;2022-09-12T00:43:59;95931.09;;;12.58;100.00
47274;BME280;33007;49.082;19.306;2022-09-12T00:49:24;95946.63;;;12.52;100.00
47274;BME280;33007;49.082;19.306;2022-09-12T00:51:54;95934.09;;;12.40;100.00
47274;BME280;33007;49.082;19.306;2022-09-12T00:54:25;95946.84;;;12.49;100.00
47274;BME280;33007;49.082;19.306;2022-09-12T00:56:57;95951.06;;;12.50;100.00
47274;BME280;33007;49.082;19.306;2022-09-12T00:59:28;95929.03;;;12.27;100.00
47274;BME280;33007;49.082;19.306;2022-09-12T01:01:57;95936.50;;;12.32;100.00
47274;BME280;33007;49.082;19.306;2022-09-12T01:04:25;95928.22;;;12.21;100.00
47274;BME280;33007;49.082;19.306;2022-09-12T01:06:53;95920.63;;;12.05;100.00
47274;BME280;33007;49.082;19.306;2022-09-12T01:09:21;95928.97;;;12.01;100.00
47274;BME280;33007;49.082;19.306;2022-09-12T01:11:48;95943.22;;;12.11;100.00
47274;BME280;33007;49.082;19.306;2022-09-12T01:14:17;95932.63;;;12.19;100.00
47274;BME280;33007;49.082;19.306;2022-09-12T01:16:43;95933.47;;;12.04;100.00
47274;BME280;33007;49.082;19.306;2022-09-12T01:38:37;95937.00;;;12.31;100.00
47274;BME280;33007;49.082;19.306;2022-09-12T01:41:13;95938.03;;;12.13;100.00
47274;BME280;33007;49.082;19.306;2022-09-12T01:43:46;95946.81;;;12.23;100.00
47274;BME280;33007;49.082;19.306;2022-09-12T01:46:17;95940.22;;;12.09;100.00
47274;BME280;33007;49.082;19.306;2022-09-12T01:48:46;95942.84;;;12.03;100.00
47274;BME280;33007;49.082;19.306;2022-09-12T01:51:20;95950.28;;;12.03;100.00
47274;BME280;33007;49.082;19.306;2022-09-12T01:53:52;95952.72;;;12.01;100.00
47274;BME280;33007;49.082;19.306;2022-09-12T01:56:28;95937.63;;;12.00;100.00
47274;BME280;33007;49.082;19.306;2022-09-12T01:59:10;95947.84;;;12.05;100.00
47274;BME280;33007;49.082;19.306;2022-09-12T02:01:44;95945.38;;;11.87;100.00
47274;BME280;33007;49.082;19.306;2022-09-12T02:04:21;95949.59;;;11.88;100.00
47274;BME280;33007;49.082;19.306;2022-09-12T02:07:00;95949.06;;;11.84;100.00
47274;BME280;33007;49.082;19.306;2022-09-12T02:09:32;95927.59;;;11.71;100.00
47274;BME280;33007;49.082;19.306;2022-09-12T02:12:00;95948.47;;;11.79;100.00
47274;BME280;33007;49.082;19.306;2022-09-12T02:14:48;95937.94;;;11.67;100.00
47274;BME280;33007;49.082;19.306;2022-09-12T02:17:24;95937.00;;;11.55;100.00
47274;BME280;33007;49.082;19.306;2022-09-12T02:19:53;95954.25;;;11.67;100.00
47274;BME280;33007;49.082;19.306;2022-09-12T02:22:23;95931.38;;;11.59;100.00
47274;BME280;33007;49.082;19.306;2022-09-12T02:24:53;95945.69;;;11.74;100.00
47274;BME280;33007;49.082;19.306;2022-09-12T02:27:35;95931.47;;;11.64;100.00
47274;BME280;33007;49.082;19.306;2022-09-12T02:30:06;95948.25;;;11.63;100.00
47274;BME280;33007;49.082;19.306;2022-09-12T02:38:19;95922.84;;;11.31;100.00
47274;BME280;33007;49.082;19.306;2022-09-12T02:40:49;95927.97;;;11.28;100.00
47274;BME280;33007;49.082;19.306;2022-09-12T02:43:15;95940.66;;;11.32;100.00
47274;BME280;33007;49.082;19.306;2022-09-12T02:45:40;95917.63;;;11.12;100.00
47274;BME280;33007;49.082;19.306;2022-09-12T02:48:14;95949.19;;;11.24;100.00
47274;BME280;33007;49.082;19.306;2022-09-12T02:50:41;95923.91;;;11.04;100.00
47274;BME280;33007;49.082;19.306;2022-09-12T02:53:08;95948.97;;;11.28;100.00
47274;BME280;33007;49.082;19.306;2022-09-12T02:55:35;95950.59;;;11.35;100.00
47274;BME280;33007;49.082;19.306;2022-09-12T02:58:05;95949.28;;;11.30;100.00
47274;BME280;33007;49.082;19.306;2022-09-12T03:03:25;95958.25;;;11.51;100.00
47274;BME280;33007;49.082;19.306;2022-09-12T03:06:09;95947.72;;;11.44;100.00
47274;BME280;33007;49.082;19.306;2022-09-12T03:08:54;95961.53;;;11.40;100.00
47274;BME280;33007;49.082;19.306;2022-09-12T03:16:43;95967.34;;;11.33;100.00
47274;BME280;33007;49.082;19.306;2022-09-12T03:19:39;95975.31;;;11.37;100.00
47274;BME280;33007;49.082;19.306;2022-09-12T03:27:26;95973.84;;;11.36;100.00
47274;BME280;33007;49.082;19.306;2022-09-12T03:29:54;95955.41;;;11.10;100.00
47274;BME280;33007;49.082;19.306;2022-09-12T03:32:42;95950.88;;;11.07;100.00
47274;BME280;33007;49.082;19.306;2022-09-12T03:35:09;95963.31;;;11.28;100.00
47274;BME280;33007;49.082;19.306;2022-09-12T03:37:35;95945.84;;;11.15;100.00
47274;BME280;33007;49.082;19.306;2022-09-12T03:40:01;95954.91;;;11.12;100.00
47274;BME280;33007;49.082;19.306;2022-09-12T03:42:27;95968.88;;;11.19;100.00
47274;BME280;33007;49.082;19.306;2022-09-12T03:44:52;95961.75;;;11.22;100.00
47274;BME280;33007;49.082;19.306;2022-09-12T03:47:18;95929.81;;;11.02;100.00
47274;BME280;33007;49.082;19.306;2022-09-12T03:49:44;95946.41;;;11.19;100.00
47274;BME280;33007;49.082;19.306;2022-09-12T03:52:09;95956.50;;;11.18;100.00
47274;BME280;33007;49.082;19.306;2022-09-12T03:54:35;95952.66;;;11.25;100.00
47274;BME280;33007;49.082;19.306;2022-09-12T03:57:00;95930.84;;;11.05;100.00
47274;BME280;33007;49.082;19.306;2022-09-12T03:59:26;95954.91;;;11.12;100.00
47274;BME280;33007;49.082;19.306;2022-09-12T04:01:52;95953.13;;;11.23;100.00
47274;BME280;33007;49.082;19.306;2022-09-12T04:04:17;95957.63;;;11.26;100.00
47274;BME280;33007;49.082;19.306;2022-09-12T04:06:43;95962.28;;;11.41;100.00
47274;BME280;33007;49.082;19.306;2022-09-12T04:09:09;95956.97;;;11.32;100.00
47274;BME280;33007;49.082;19.306;2022-09-12T04:11:34;95932.31;;;11.20;100.00
47274;BME280;33007;49.082;19.306;2022-09-12T04:14:00;95964.94;;;11.35;100.00
47274;BME280;33007;49.082;19.306;2022-09-12T04:16:26;95924.75;;;11.10;100.00
47274;BME280;33007;49.082;19.306;2022-09-12T04:18:53;95950.88;;;11.22;100.00
47274;BME280;33007;49.082;19.306;2022-09-12T04:21:19;95972.41;;;11.40;100.00
47274;BME280;33007;49.082;19.306;2022-09-12T04:23:49;95966.97;;;11.40;100.00
47274;BME280;33007;49.082;19.306;2022-09-12T04:26:15;95965.47;;;11.39;100.00
47274;BME280;33007;49.082;19.306;2022-09-12T04:28:42;95945.34;;;11.31;100.00
47274;BME280;33007;49.082;19.306;2022-09-12T04:31:11;95974.94;;;11.44;100.00
47274;BME280;33007;49.082;19.306;2022-09-12T04:33:37;95963.78;;;11.42;100.00
47274;BME280;33007;49.082;19.306;2022-09-12T04:36:09;95961.34;;;11.29;100.00
47274;BME280;33007;49.082;19.306;2022-09-12T04:38:36;95967.91;;;11.37;100.00
47274;BME280;33007;49.082;19.306;2022-09-12T04:41:20;95957.22;;;11.34;100.00
47274;BME280;33007;49.082;19.306;2022-09-12T04:43:47;95970.03;;;11.48;100.00
47274;BME280;33007;49.082;19.306;2022-09-12T04:46:14;95939.91;;;11.31;100.00
47274;BME280;33007;49.082;19.306;2022-09-12T04:48:41;95965.34;;;11.48;100.00
47274;BME280;33007;49.082;19.306;2022-09-12T04:51:17;95963.31;;;11.43;100.00
47274;BME280;33007;49.082;19.306;2022-09-12T04:53:49;95947.72;;;11.44;100.00
47274;BME280;33007;49.082;19.306;2022-09-12T04:56:15;95970.69;;;11.58;100.00
47274;BME280;33007;49.082;19.306;2022-09-12T04:58:41;95962.81;;;11.45;100.00
47274;BME280;33007;49.082;19.306;2022-09-12T05:01:20;95956.25;;;11.51;100.00
47274;BME280;33007;49.082;19.306;2022-09-12T05:03:48;95972.28;;;11.49;100.00
47274;BME280;33007;49.082;19.306;2022-09-12T05:06:19;95958.81;;;11.40;100.00
47274;BME280;33007;49.082;19.306;2022-09-12T05:08:45;95974.56;;;11.51;100.00
47274;BME280;33007;49.082;19.306;2022-09-12T05:11:16;95986.13;;;11.66;100.00
47274;BME280;33007;49.082;19.306;2022-09-12T05:13:42;95970.41;;;11.55;100.00
47274;BME280;33007;49.082;19.306;2022-09-12T05:16:11;95992.03;;;11.65;100.00
47274;BME280;33007;49.082;19.306;2022-09-12T05:18:37;95996.56;;;11.68;100.00
47274;BME280;33007;49.082;19.306;2022-09-12T05:21:06;95984.56;;;11.60;100.00
47274;BME280;33007;49.082;19.306;2022-09-12T05:23:32;95980.91;;;11.63;100.00
47274;BME280;33007;49.082;19.306;2022-09-12T05:25:59;96001.56;;;11.90;100.00
47274;BME280;33007;49.082;19.306;2022-09-12T05:28:30;95992.94;;;11.91;100.00
47274;BME280;33007;49.082;19.306;2022-09-12T05:31:02;96004.28;;;11.90;100.00
47274;BME280;33007;49.082;19.306;2022-09-12T05:33:28;96009.63;;;11.99;100.00
47274;BME280;33007;49.082;19.306;2022-09-12T05:35:54;95992.25;;;11.96;100.00
47274;BME280;33007;49.082;19.306;2022-09-12T05:38:20;95997.63;;;11.91;100.00
47274;BME280;33007;49.082;19.306;2022-09-12T05:40:46;95972.13;;;11.88;100.00
47274;BME280;33007;49.082;19.306;2022-09-12T05:43:11;95998.13;;;12.10;100.00
47274;BME280;33007;49.082;19.306;2022-09-12T05:45:37;95976.81;;;12.08;100.00
47274;BME280;33007;49.082;19.306;2022-09-12T05:48:03;95985.94;;;12.05;100.00
47274;BME280;33007;49.082;19.306;2022-09-12T05:50:29;95983.00;;;12.09;100.00
47274;BME280;33007;49.082;19.306;2022-09-12T05:52:56;95992.00;;;12.15;100.00
47274;BME280;33007;49.082;19.306;2022-09-12T05:55:21;95993.81;;;12.23;100.00
47274;BME280;33007;49.082;19.306;2022-09-12T05:57:47;95982.19;;;12.23;100.00
47274;BME280;33007;49.082;19.306;2022-09-12T06:00:13;95997.59;;;12.26;100.00
47274;BME280;33007;49.082;19.306;2022-09-12T06:02:39;95978.19;;;12.18;100.00
47274;BME280;33007;49.082;19.306;2022-09-12T06:05:05;95966.81;;;12.20;100.00
47274;BME280;33007;49.082;19.306;2022-09-12T06:07:31;95987.88;;;12.45;100.00
47274;BME280;33007;49.082;19.306;2022-09-12T06:09:57;95979.53;;;12.49;100.00
47274;BME280;33007;49.082;19.306;2022-09-12T06:12:24;95985.28;;;12.56;100.00
47274;BME280;33007;49.082;19.306;2022-09-12T06:14:51;96000.00;;;12.65;100.00
47274;BME280;33007;49.082;19.306;2022-09-12T06:17:17;95989.91;;;12.71;100.00
47274;BME280;33007;49.082;19.306;2022-09-12T06:19:43;95956.84;;;12.57;100.00
47274;BME280;33007;49.082;19.306;2022-09-12T06:22:10;95998.78;;;12.92;100.00
47274;BME280;33007;49.082;19.306;2022-09-12T06:24:35;95959.03;;;12.79;100.00
47274;BME280;33007;49.082;19.306;2022-09-12T06:27:01;95977.28;;;12.99;100.00
47274;BME280;33007;49.082;19.306;2022-09-12T06:29:27;95996.84;;;13.24;100.00
47274;BME280;33007;49.082;19.306;2022-09-12T06:31:53;95989.69;;;13.26;100.00
47274;BME280;33007;49.082;19.306;2022-09-12T06:34:19;95990.69;;;13.29;100.00
47274;BME280;33007;49.082;19.306;2022-09-12T06:36:46;96011.66;;;13.43;97.20
47274;BME280;33007;49.082;19.306;2022-09-12T06:39:15;95982.56;;;13.34;98.51
47274;BME280;33007;49.082;19.306;2022-09-12T06:41:41;96000.41;;;13.35;99.11
47274;BME280;33007;49.082;19.306;2022-09-12T06:44:11;96004.25;;;13.49;100.00
47274;BME280;33007;49.082;19.306;2022-09-12T06:46:37;95974.59;;;13.31;96.84
47274;BME280;33007;49.082;19.306;2022-09-12T06:49:02;96001.03;;;13.51;99.97
47274;BME280;33007;49.082;19.306;2022-09-12T06:51:28;95994.31;;;13.52;96.48
47274;BME280;33007;49.082;19.306;2022-09-12T06:53:55;96013.03;;;13.65;91.89
47274;BME280;33007;49.082;19.306;2022-09-12T06:56:23;95968.44;;;13.36;90.37
47274;BME280;33007;49.082;19.306;2022-09-12T06:58:50;96013.53;;;13.69;93.34
47274;BME280;33007;49.082;19.306;2022-09-12T07:01:22;96023.28;;;13.75;95.59
47274;BME280;33007;49.082;19.306;2022-09-12T07:03:50;96022.47;;;13.63;87.79
47274;BME280;33007;49.082;19.306;2022-09-12T07:06:18;96019.25;;;13.65;85.52
47274;BME280;33007;49.082;19.306;2022-09-12T07:08:44;95998.34;;;13.56;86.83
47274;BME280;33007;49.082;19.306;2022-09-12T07:11:22;95997.91;;;13.63;88.85
47274;BME280;33007;49.082;19.306;2022-09-12T07:13:50;96020.88;;;13.88;89.31
47274;BME280;33007;49.082;19.306;2022-09-12T07:16:17;96013.72;;;13.97;86.59
47274;BME280;33007;49.082;19.306;2022-09-12T07:18:43;96009.28;;;14.05;88.23
47274;BME280;33007;49.082;19.306;2022-09-12T07:21:12;96015.34;;;14.26;89.29
47274;BME280;33007;49.082;19.306;2022-09-12T07:23:39;96014.59;;;14.20;81.99
47274;BME280;33007;49.082;19.306;2022-09-12T07:26:06;96023.13;;;14.38;83.40
47274;BME280;33007;49.082;19.306;2022-09-12T07:28:33;96011.94;;;14.42;84.72
47274;BME280;33007;49.082;19.306;2022-09-12T07:31:28;96023.69;;;14.54;81.66
47274;BME280;33007;49.082;19.306;2022-09-12T07:33:54;96017.41;;;14.42;81.71
47274;BME280;33007;49.082;19.306;2022-09-12T07:36:21;96020.22;;;14.53;81.32
47274;BME280;33007;49.082;19.306;2022-09-12T07:38:52;96020.22;;;14.53;83.98
47274;BME280;33007;49.082;19.306;2022-09-12T07:41:20;96030.44;;;14.70;81.80
47274;BME280;33007;49.082;19.306;2022-09-12T07:43:46;96014.75;;;14.53;81.89
47274;BME280;33007;49.082;19.306;2022-09-12T07:46:12;95990.06;;;14.36;81.20
47274;BME280;33007;49.082;19.306;2022-09-12T07:48:38;96038.16;;;14.71;81.91
47274;BME280;33007;49.082;19.306;2022-09-12T07:51:07;95982.34;;;14.29;79.10
47274;BME280;33007;49.082;19.306;2022-09-12T07:53:36;95978.88;;;14.29;81.63
47274;BME280;33007;49.082;19.306;2022-09-12T07:56:03;96026.97;;;14.69;83.46
47274;BME280;33007;49.082;19.306;2022-09-12T07:58:31;96039.69;;;14.78;82.17
47274;BME280;33007;49.082;19.306;2022-09-12T08:01:19;96009.72;;;14.46;80.85
47274;BME280;33007;49.082;19.306;2022-09-12T08:03:48;96015.47;;;14.48;82.25
47274;BME280;33007;49.082;19.306;2022-09-12T08:06:19;96045.13;;;14.72;81.70
47274;BME280;33007;49.082;19.306;2022-09-12T08:08:46;96033.16;;;14.58;83.25
47274;BME280;33007;49.082;19.306;2022-09-12T08:11:14;96023.97;;;14.61;83.32
47274;BME280;33007;49.082;19.306;2022-09-12T08:13:41;96033.72;;;14.85;81.81
47274;BME280;33007;49.082;19.306;2022-09-12T08:16:11;96033.50;;;14.94;80.99
47274;BME280;33007;49.082;19.306;2022-09-12T08:18:37;96039.00;;;15.05;79.74
47274;BME280;33007;49.082;19.306;2022-09-12T08:21:09;96040.25;;;15.15;80.26
47274;BME280;33007;49.082;19.306;2022-09-12T08:23:36;96015.13;;;15.06;81.22
47274;BME280;33007;49.082;19.306;2022-09-12T08:26:03;96029.06;;;15.25;79.18
47274;BME280;33007;49.082;19.306;2022-09-12T08:28:30;96025.34;;;15.28;79.42
47274;BME280;33007;49.082;19.306;2022-09-12T08:31:03;96028.56;;;15.32;78.03
47274;BME280;33007;49.082;19.306;2022-09-12T08:33:30;96023.34;;;15.34;79.49
47274;BME280;33007;49.082;19.306;2022-09-12T08:36:10;95993.75;;;15.15;76.21
47274;BME280;33007;49.082;19.306;2022-09-12T08:38:39;96031.56;;;15.39;76.85
47274;BME280;33007;49.082;19.306;2022-09-12T08:49:36;96032.81;;;15.44;74.60
47274;BME280;33007;49.082;19.306;2022-09-12T08:52:14;96024.59;;;15.38;74.81
47274;BME280;33007;49.082;19.306;2022-09-12T08:54:42;96038.28;;;15.38;78.83
47274;BME280;33007;49.082;19.306;2022-09-12T08:57:10;96023.84;;;15.27;77.10
47274;BME280;33007;49.082;19.306;2022-09-12T08:59:40;96005.94;;;15.26;76.86
47274;BME280;33007;49.082;19.306;2022-09-12T09:08:07;96021.84;;;15.38;75.30
47274;BME280;33007;49.082;19.306;2022-09-12T09:10:55;96030.34;;;15.46;75.37
47274;BME280;33007;49.082;19.306;2022-09-12T09:16:34;96030.31;;;15.52;72.77
47274;BME280;33007;49.082;19.306;2022-09-12T09:19:04;96011.19;;;15.40;69.97
47274;BME280;33007;49.082;19.306;2022-09-12T09:21:58;96029.31;;;15.43;72.52
47274;BME280;33007;49.082;19.306;2022-09-12T09:24:35;96027.09;;;15.36;70.46
47274;BME280;33007;49.082;19.306;2022-09-12T09:27:11;96021.63;;;15.36;70.82
47274;BME280;33007;49.082;19.306;2022-09-12T09:29:45;96030.34;;;15.35;70.58
47274;BME280;33007;49.082;19.306;2022-09-12T09:39:01;96036.03;;;15.37;66.54
47274;BME280;33007;49.082;19.306;2022-09-12T09:41:44;96049.97;;;15.39;69.61
47274;BME280;33007;49.082;19.306;2022-09-12T09:44:16;96043.50;;;15.36;66.64
47274;BME280;33007;49.082;19.306;2022-09-12T09:46:42;96044.75;;;15.35;66.89
47274;BME280;33007;49.082;19.306;2022-09-12T09:49:11;96046.47;;;15.27;63.04
47274;BME280;33007;49.082;19.306;2022-09-12T09:51:40;96043.22;;;15.23;62.44
47274;BME280;33007;49.082;19.306;2022-09-12T09:54:14;96054.19;;;15.29;64.15
47274;BME280;33007;49.082;19.306;2022-09-12T09:56:41;96049.72;;;15.31;65.53
47274;BME280;33007;49.082;19.306;2022-09-12T09:59:19;96067.38;;;15.36;63.99
47274;BME280;33007;49.082;19.306;2022-09-12T10:02:02;96057.44;;;15.44;64.96
47274;BME280;33007;49.082;19.306;2022-09-12T10:04:38;96053.47;;;15.39;67.30
47274;BME280;33007;49.082;19.306;2022-09-12T10:07:04;96047.50;;;15.30;63.55
47274;BME280;33007;49.082;19.306;2022-09-12T10:09:32;96062.91;;;15.44;67.42
47274;BME280;33007;49.082;19.306;2022-09-12T10:11:59;96053.94;;;15.49;68.02
47274;BME280;33007;49.082;19.306;2022-09-12T10:14:39;96065.66;;;15.61;67.96
47274;BME280;33007;49.082;19.306;2022-09-12T10:17:44;96058.97;;;15.79;66.33
47274;BME280;33007;49.082;19.306;2022-09-12T10:20:33;96064.66;;;16.09;58.72
47274;BME280;33007;49.082;19.306;2022-09-12T10:23:36;96058.59;;;16.38;61.34
47274;BME280;33007;49.082;19.306;2022-09-12T10:26:09;96064.78;;;16.50;61.64
47274;BME280;33007;49.082;19.306;2022-09-12T10:28:39;96064.25;;;16.63;61.04
47274;BME280;33007;49.082;19.306;2022-09-12T10:31:07;96061.53;;;16.57;58.62
47274;BME280;33007;49.082;19.306;2022-09-12T10:33:45;96076.47;;;16.56;59.41
47274;BME280;33007;49.082;19.306;2022-09-12T10:36:17;96076.78;;;16.41;60.93
47274;BME280;33007;49.082;19.306;2022-09-12T10:38:51;96070.81;;;16.32;61.56
47274;BME280;33007;49.082;19.306;2022-09-12T10:41:18;96058.13;;;16.23;63.66
47274;BME280;33007;49.082;19.306;2022-09-12T10:43:46;96047.97;;;16.01;58.17
47274;BME280;33007;49.082;19.306;2022-09-12T10:48:45;96071.13;;;16.06;59.78
47274;BME280;33007;49.082;19.306;2022-09-12T10:51:28;96065.38;;;16.20;63.33
47274;BME280;33007;49.082;19.306;2022-09-12T10:53:56;96064.06;;;16.44;61.44
47274;BME280;33007;49.082;19.306;2022-09-12T10:56:32;96054.88;;;16.36;60.12
47274;BME280;33007;49.082;19.306;2022-09-12T11:01:39;96057.91;;;16.15;56.96
47274;BME280;33007;49.082;19.306;2022-09-12T11:04:39;96060.06;;;16.39;59.84
47274;BME280;33007;49.082;19.306;2022-09-12T11:25:37;96068.91;;;17.62;51.21
47274;BME280;33007;49.082;19.306;2022-09-12T11:30:57;96063.53;;;18.35;48.73
47274;BME280;33007;49.082;19.306;2022-09-12T11:33:44;96068.31;;;18.78;49.43
47274;BME280;33007;49.082;19.306;2022-09-12T11:39:15;96072.28;;;18.33;49.73
47274;BME280;33007;49.082;19.306;2022-09-12T11:41:51;96067.41;;;18.89;51.10
47274;BME280;33007;49.082;19.306;2022-09-12T11:44:24;96065.03;;;18.79;46.88
47274;BME280;33007;49.082;19.306;2022-09-12T11:46:50;96055.00;;;19.20;47.94
47274;BME280;33007;49.082;19.306;2022-09-12T11:49:23;96073.25;;;19.55;48.47
47274;BME280;33007;49.082;19.306;2022-09-12T11:52:13;96073.44;;;19.76;48.41
47274;BME280;33007;49.082;19.306;2022-09-12T12:00:03;96063.47;;;19.73;48.09
47274;BME280;33007;49.082;19.306;2022-09-12T12:02:35;96070.25;;;19.72;45.89
47274;BME280;33007;49.082;19.306;2022-09-12T12:07:52;96055.75;;;19.52;46.45
47274;BME280;33007;49.082;19.306;2022-09-12T12:12:59;96056.56;;;19.34;45.95
47274;BME280;33007;49.082;19.306;2022-09-12T12:15:28;96062.50;;;19.19;45.07
47274;BME280;33007;49.082;19.306;2022-09-12T12:18:23;96074.81;;;19.50;46.40
47274;BME280;33007;49.082;19.306;2022-09-12T12:20:50;96082.94;;;19.43;43.97
47274;BME280;33007;49.082;19.306;2022-09-12T12:23:28;96064.56;;;19.32;44.75
47274;BME280;33007;49.082;19.306;2022-09-12T12:25:58;96083.88;;;19.64;45.01
47274;BME280;33007;49.082;19.306;2022-09-12T12:31:15;96071.78;;;19.16;42.69
47274;BME280;33007;49.082;19.306;2022-09-12T12:36:09;96052.09;;;19.12;44.91
47274;BME280;33007;49.082;19.306;2022-09-12T12:38:51;96054.09;;;19.30;42.73
47274;BME280;33007;49.082;19.306;2022-09-12T12:43:53;96072.31;;;18.96;43.09
47274;BME280;33007;49.082;19.306;2022-09-12T12:46:28;96056.03;;;19.35;43.58
47274;BME280;33007;49.082;19.306;2022-09-12T12:51:35;96082.28;;;20.01;44.94
47274;BME280;33007;49.082;19.306;2022-09-12T12:56:48;96059.09;;;19.64;42.06
47274;BME280;33007;49.082;19.306;2022-09-12T12:59:28;96066.00;;;20.03;44.50
47274;BME280;33007;49.082;19.306;2022-09-12T13:01:56;96060.38;;;20.22;43.39
47274;BME280;33007;49.082;19.306;2022-09-12T13:04:27;96043.84;;;20.08;44.11
47274;BME280;33007;49.082;19.306;2022-09-12T13:06:57;96070.53;;;19.87;43.15
47274;BME280;33007;49.082;19.306;2022-09-12T13:09:36;96063.66;;;19.61;43.50
47274;BME280;33007;49.082;19.306;2022-09-12T13:12:24;96064.03;;;19.52;45.22
47274;BME280;33007;49.082;19.306;2022-09-12T13:14:53;96065.47;;;19.21;44.18
47274;BME280;33007;49.082;19.306;2022-09-12T13:20:13;96044.88;;;19.09;44.40
47274;BME280;33007;49.082;19.306;2022-09-12T13:22:43;96054.41;;;18.89;42.15
47274;BME280;33007;49.082;19.306;2022-09-12T13:25:35;96058.25;;;19.37;43.21
47274;BME280;33007;49.082;19.306;2022-09-12T13:28:15;96049.41;;;19.57;42.85
47274;BME280;33007;49.082;19.306;2022-09-12T13:30:46;96049.97;;;19.37;41.49
47274;BME280;33007;49.082;19.306;2022-09-12T13:33:33;96058.16;;;19.61;41.62
47274;BME280;33007;49.082;19.306;2022-09-12T13:44:48;96044.63;;;19.45;43.96
47274;BME280;33007;49.082;19.306;2022-09-12T13:47:34;96039.22;;;19.20;44.46
47274;BME280;33007;49.082;19.306;2022-09-12T13:50:04;96046.75;;;19.20;43.98
47274;BME280;33007;49.082;19.306;2022-09-12T13:52:32;96041.94;;;19.07;44.33
47274;BME280;33007;49.082;19.306;2022-09-12T13:55:00;96020.34;;;18.73;44.37
47274;BME280;33007;49.082;19.306;2022-09-12T13:57:38;96034.56;;;18.77;45.48
47274;BME280;33007;49.082;19.306;2022-09-12T14:00:15;96038.03;;;18.59;45.83
47274;BME280;33007;49.082;19.306;2022-09-12T14:02:45;96022.19;;;18.22;42.05
47274;BME280;33007;49.082;19.306;2022-09-12T14:05:18;96034.09;;;18.30;43.72
47274;BME280;33007;49.082;19.306;2022-09-12T14:07:51;96040.84;;;18.29;43.28
47274;BME280;33007;49.082;19.306;2022-09-12T14:10:43;96024.94;;;18.22;43.86
47274;BME280;33007;49.082;19.306;2022-09-12T14:13:14;96035.75;;;18.14;46.19
47274;BME280;33007;49.082;19.306;2022-09-12T14:15:44;95998.84;;;17.85;46.74
47274;BME280;33007;49.082;19.306;2022-09-12T14:18:20;96037.53;;;18.12;46.28
47274;BME280;33007;49.082;19.306;2022-09-12T14:20:47;95992.88;;;17.81;46.85
47274;BME280;33007;49.082;19.306;2022-09-12T14:23:41;96029.84;;;18.04;46.11
47274;BME280;33007;49.082;19.306;2022-09-12T14:26:11;96027.13;;;17.80;45.07
47274;BME280;33007;49.082;19.306;2022-09-12T14:28:41;96037.47;;;17.93;48.61
47274;BME280;33007;49.082;19.306;2022-09-12T14:33:54;96028.41;;;17.73;46.01
47274;BME280;33007;49.082;19.306;2022-09-12T14:36:29;96036.09;;;17.80;47.88
47274;BME280;33007;49.082;19.306;2022-09-12T14:38:58;96043.28;;;17.84;46.80
47274;BME280;33007;49.082;19.306;2022-09-12T14:41:44;96021.75;;;17.63;49.54
47274;BME280;33007;49.082;19.306;2022-09-12T14:44:29;96041.84;;;17.77;46.06
47274;BME280;33007;49.082;19.306;2022-09-12T14:47:09;96026.13;;;17.77;46.31
47274;BME280;33007;49.082;19.306;2022-09-12T14:49:36;96021.16;;;17.76;47.55
47274;BME280;33007;49.082;19.306;2022-09-12T14:52:07;96039.06;;;17.83;48.01
47274;BME280;33007;49.082;19.306;2022-09-12T14:54:55;96015.16;;;17.72;47.41
47274;BME280;33007;49.082;19.306;2022-09-12T14:57:31;96033.28;;;17.86;46.27
47274;BME280;33007;49.082;19.306;2022-09-12T15:02:39;96014.06;;;17.56;47.99
47274;BME280;33007;49.082;19.306;2022-09-12T15:12:56;96020.53;;;17.89;45.23
47274;BME280;33007;49.082;19.306;2022-09-12T15:15:27;96010.22;;;17.95;45.14
47274;BME280;33007;49.082;19.306;2022-09-12T15:17:53;96024.97;;;18.16;46.97
47274;BME280;33007;49.082;19.306;2022-09-12T15:20:18;96023.50;;;18.40;45.50
47274;BME280;33007;49.082;19.306;2022-09-12T15:22:44;96030.34;;;18.52;44.93
47274;BME280;33007;49.082;19.306;2022-09-12T15:25:11;96034.91;;;18.68;43.77
47274;BME280;33007;49.082;19.306;2022-09-12T15:27:37;96017.91;;;18.70;43.23
47274;BME280;33007;49.082;19.306;2022-09-12T15:30:07;96020.19;;;18.84;43.77
47274;BME280;33007;49.082;19.306;2022-09-12T15:32:34;96027.38;;;18.50;43.13